Time,TemperatureF,DewpointF,PressureIn,WindDirection,WindDirectionDegrees,WindSpeedMPH,WindSpeedGustMPH,Humidity,HourlyPrecipIn,Conditions,Clouds,dailyrainin,SolarRadiationWatts/m^2,SoftwareType,DateUTC
2013-03-13 00:03:00,21.0,-3.0,-100.00,SE,137,4.0,8.0,34,0.00,,,0.00,0.000000,,2013-03-13 08:03:00,
2013-03-13 00:12:00,21.0,-3.0,-100.00,SE,137,4.0,8.0,34,0.00,,,0.00,0.000000,,2013-03-13 08:12:00,
2013-03-13 00:21:00,21.0,-3.0,-100.00,SE,137,4.0,8.0,34,0.00,,,0.00,0.000000,,2013-03-13 08:21:00,
2013-03-13 00:43:00,21.0,-3.0,-100.00,SE,143,5.0,10.0,33,0.00,,,0.00,0.000000,,2013-03-13 08:43:00,
2013-03-13 00:53:00,21.0,-3.0,-100.00,SE,143,5.0,10.0,33,0.00,,,0.00,0.000000,,2013-03-13 08:53:00,
2013-03-13 01:02:00,21.0,-3.0,-100.00,SE,143,5.0,10.0,33,0.00,,,0.00,0.000000,,2013-03-13 09:02:00,
2013-03-13 01:12:00,21.0,-3.0,-100.00,SE,143,5.0,10.0,33,0.00,,,0.00,0.000000,,2013-03-13 09:12:00,
2013-03-13 01:21:00,21.0,-3.0,-100.00,SE,143,5.0,10.0,33,0.00,,,0.00,0.000000,,2013-03-13 09:21:00,
2013-03-13 01:42:00,21.0,-3.0,-100.00,SSE,148,6.0,12.0,34,0.00,,,0.00,0.000000,,2013-03-13 09:42:00,
2013-03-13 01:52:00,21.0,-3.0,-100.00,SSE,148,6.0,12.0,34,0.00,,,0.00,0.000000,,2013-03-13 09:52:00,
2013-03-13 02:02:00,21.0,-3.0,-100.00,SSE,148,6.0,12.0,34,0.00,,,0.00,0.000000,,2013-03-13 10:02:00,
2013-03-13 02:11:00,21.0,-3.0,-100.00,SSE,148,6.0,12.0,34,0.00,,,0.00,0.000000,,2013-03-13 10:11:00,
2013-03-13 02:22:00,21.0,-3.0,-100.00,SSE,148,6.0,12.0,34,0.00,,,0.00,0.000000,,2013-03-13 10:22:00,
2013-03-13 02:42:00,21.0,-4.0,-100.00,SSE,149,7.0,11.0,32,0.00,,,0.00,0.000000,,2013-03-13 10:42:00,
2013-03-13 02:52:00,21.0,-4.0,-100.00,SSE,149,7.0,11.0,32,0.00,,,0.00,0.000000,,2013-03-13 10:52:00,
2013-03-13 03:02:00,21.0,-4.0,-100.00,SSE,149,7.0,11.0,32,0.00,,,0.00,0.000000,,2013-03-13 11:02:00,
2013-03-13 03:12:00,21.0,-4.0,-100.00,SSE,149,7.0,11.0,32,0.00,,,0.00,0.000000,,2013-03-13 11:12:00,
2013-03-13 03:21:00,21.0,-4.0,-100.00,SSE,149,7.0,11.0,32,0.00,,,0.00,0.000000,,2013-03-13 11:21:00,
2013-03-13 03:42:00,19.0,-6.0,-100.00,SSE,155,6.0,10.0,31,0.00,,,0.00,0.000000,,2013-03-13 11:42:00,
2013-03-13 03:52:00,19.0,-6.0,-100.00,SSE,155,6.0,10.0,31,0.00,,,0.00,0.000000,,2013-03-13 11:52:00,
2013-03-13 04:02:00,19.0,-6.0,-100.00,SSE,155,6.0,10.0,31,0.00,,,0.00,0.000000,,2013-03-13 12:02:00,
2013-03-13 04:12:00,19.0,-6.0,-100.00,SSE,155,6.0,10.0,31,0.00,,,0.00,0.000000,,2013-03-13 12:12:00,
2013-03-13 04:22:00,19.0,-6.0,-100.00,SSE,155,6.0,10.0,31,0.00,,,0.00,0.000000,,2013-03-13 12:22:00,
2013-03-13 04:42:00,19.0,-7.0,-100.00,SE,146,6.0,10.0,30,0.00,,,0.00,0.000000,,2013-03-13 12:42:00,
2013-03-13 04:53:00,19.0,-7.0,-100.00,SE,146,6.0,10.0,30,0.00,,,0.00,0.000000,,2013-03-13 12:53:00,
2013-03-13 05:02:00,19.0,-7.0,-100.00,SE,146,6.0,10.0,30,0.00,,,0.00,0.000000,,2013-03-13 13:02:00,
2013-03-13 05:11:00,19.0,-7.0,-100.00,SE,146,6.0,10.0,30,0.00,,,0.00,0.000000,,2013-03-13 13:11:00,
2013-03-13 05:21:00,19.0,-7.0,-100.00,SE,146,6.0,10.0,30,0.00,,,0.00,0.000000,,2013-03-13 13:21:00,
2013-03-13 05:43:00,19.0,-6.0,-100.00,SSE,156,7.0,10.0,32,0.00,,,0.00,0.000000,,2013-03-13 13:43:00,
2013-03-13 05:52:00,19.0,-6.0,-100.00,SSE,156,7.0,10.0,32,0.00,,,0.00,0.000000,,2013-03-13 13:52:00,
2013-03-13 06:02:00,19.0,-6.0,-100.00,SSE,156,7.0,10.0,32,0.00,,,0.00,0.000000,,2013-03-13 14:02:00,
2013-03-13 06:11:00,19.0,-6.0,-100.00,SSE,156,7.0,10.0,32,0.00,,,0.00,0.000000,,2013-03-13 14:11:00,
2013-03-13 06:21:00,19.0,-6.0,-100.00,SSE,156,7.0,10.0,32,0.00,,,0.00,0.000000,,2013-03-13 14:21:00,
2013-03-13 07:03:00,19.0,-6.0,-100.00,SE,146,6.0,10.0,32,0.00,,,0.00,0.000000,,2013-03-13 15:03:00,
2013-03-13 07:12:00,19.0,-6.0,-100.00,SE,146,6.0,10.0,32,0.00,,,0.00,0.000000,,2013-03-13 15:12:00,
2013-03-13 07:22:00,19.0,-6.0,-100.00,SE,146,6.0,10.0,32,0.00,,,0.00,0.000000,,2013-03-13 15:22:00,
2013-03-13 07:43:00,19.0,-6.0,-100.00,SE,139,6.0,10.0,31,0.00,,,0.00,0.000000,,2013-03-13 15:43:00,
2013-03-13 07:52:00,19.0,-6.0,-100.00,SE,139,6.0,10.0,31,0.00,,,0.00,0.000000,,2013-03-13 15:52:00,
2013-03-13 08:02:00,19.0,-6.0,-100.00,SE,139,6.0,10.0,31,0.00,,,0.00,0.000000,,2013-03-13 16:02:00,
2013-03-13 08:12:00,19.0,-6.0,-100.00,SE,139,6.0,10.0,31,0.00,,,0.00,0.000000,,2013-03-13 16:12:00,
2013-03-13 08:21:00,19.0,-6.0,-100.00,SE,139,6.0,10.0,31,0.00,,,0.00,0.000000,,2013-03-13 16:21:00,
2013-03-13 08:42:00,18.0,-9.0,-100.00,SSE,153,6.0,12.0,30,0.00,,,0.00,7.000000,,2013-03-13 16:42:00,
2013-03-13 08:52:00,18.0,-9.0,-100.00,SSE,153,6.0,12.0,30,0.00,,,0.00,7.000000,,2013-03-13 16:52:00,
2013-03-13 09:02:00,18.0,-9.0,-100.00,SSE,153,6.0,12.0,30,0.00,,,0.00,7.000000,,2013-03-13 17:02:00,
2013-03-13 09:11:00,18.0,-9.0,-100.00,SSE,153,6.0,12.0,30,0.00,,,0.00,7.000000,,2013-03-13 17:11:00,
2013-03-13 09:21:00,18.0,-9.0,-100.00,SSE,153,6.0,12.0,30,0.00,,,0.00,7.000000,,2013-03-13 17:21:00,
2013-03-13 09:42:00,18.0,-9.0,-100.00,SE,146,5.0,11.0,30,0.00,,,0.00,42.000000,,2013-03-13 17:42:00,
2013-03-13 09:53:00,18.0,-9.0,-100.00,SE,146,5.0,11.0,30,0.00,,,0.00,42.000000,,2013-03-13 17:53:00,
2013-03-13 10:02:00,18.0,-9.0,-100.00,SE,146,5.0,11.0,30,0.00,,,0.00,42.000000,,2013-03-13 18:02:00,
2013-03-13 10:12:00,18.0,-9.0,-100.00,SE,146,5.0,11.0,30,0.00,,,0.00,42.000000,,2013-03-13 18:12:00,
2013-03-13 10:21:00,18.0,-9.0,-100.00,SE,146,5.0,11.0,30,0.00,,,0.00,42.000000,,2013-03-13 18:21:00,
2013-03-13 10:43:00,18.0,-7.0,-100.00,SSE,151,6.0,10.0,32,0.00,,,0.00,44.000000,,2013-03-13 18:43:00,
2013-03-13 10:52:00,18.0,-7.0,-100.00,SSE,151,6.0,10.0,32,0.00,,,0.00,44.000000,,2013-03-13 18:52:00,
2013-03-13 11:02:00,18.0,-7.0,-100.00,SSE,151,6.0,10.0,32,0.00,,,0.00,44.000000,,2013-03-13 19:02:00,
2013-03-13 11:12:00,18.0,-7.0,-100.00,SSE,151,6.0,10.0,32,0.00,,,0.00,44.000000,,2013-03-13 19:12:00,
2013-03-13 11:22:00,18.0,-7.0,-100.00,SSE,151,6.0,10.0,32,0.00,,,0.00,44.000000,,2013-03-13 19:22:00,
2013-03-13 11:43:00,19.0,-9.0,-100.00,SE,145,6.0,12.0,27,0.00,,,0.00,116.000000,,2013-03-13 19:43:00,
2013-03-13 11:53:00,19.0,-9.0,-100.00,SE,145,6.0,12.0,27,0.00,,,0.00,116.000000,,2013-03-13 19:53:00,
2013-03-13 12:02:00,19.0,-9.0,-100.00,SE,145,6.0,12.0,27,0.00,,,0.00,116.000000,,2013-03-13 20:02:00,
2013-03-13 12:11:00,19.0,-9.0,-100.00,SE,145,6.0,12.0,27,0.00,,,0.00,116.000000,,2013-03-13 20:11:00,
2013-03-13 12:21:00,19.0,-9.0,-100.00,SE,145,6.0,12.0,27,0.00,,,0.00,116.000000,,2013-03-13 20:21:00,
2013-03-13 12:42:00,21.0,-7.0,-100.00,SE,143,7.0,11.0,28,0.00,,,0.00,298.000000,,2013-03-13 20:42:00,
2013-03-13 12:52:00,21.0,-7.0,-100.00,SE,143,7.0,11.0,28,0.00,,,0.00,298.000000,,2013-03-13 20:52:00,
2013-03-13 13:02:00,21.0,-7.0,-100.00,SE,143,7.0,11.0,28,0.00,,,0.00,298.000000,,2013-03-13 21:02:00,
2013-03-13 13:11:00,21.0,-7.0,-100.00,SE,143,7.0,11.0,28,0.00,,,0.00,298.000000,,2013-03-13 21:11:00,
2013-03-13 13:21:00,21.0,-7.0,-100.00,SE,143,7.0,11.0,28,0.00,,,0.00,298.000000,,2013-03-13 21:21:00,
2013-03-13 13:42:00,21.0,-7.0,-100.00,SSE,147,7.0,11.0,28,0.00,,,0.00,360.000000,,2013-03-13 21:42:00,
2013-03-13 13:52:00,21.0,-7.0,-100.00,SSE,147,7.0,11.0,28,0.00,,,0.00,360.000000,,2013-03-13 21:52:00,
2013-03-13 14:02:00,21.0,-7.0,-100.00,SSE,147,7.0,11.0,28,0.00,,,0.00,360.000000,,2013-03-13 22:02:00,
2013-03-13 14:12:00,21.0,-7.0,-100.00,SSE,147,7.0,11.0,28,0.00,,,0.00,360.000000,,2013-03-13 22:12:00,
2013-03-13 14:21:00,21.0,-7.0,-100.00,SSE,147,7.0,11.0,28,0.00,,,0.00,360.000000,,2013-03-13 22:21:00,
2013-03-13 14:42:00,23.0,-4.0,-100.00,SE,140,7.0,11.0,29,0.00,,,0.00,358.000000,,2013-03-13 22:42:00,
2013-03-13 14:52:00,23.0,-4.0,-100.00,SE,140,7.0,11.0,29,0.00,,,0.00,358.000000,,2013-03-13 22:52:00,
2013-03-13 15:02:00,23.0,-4.0,-100.00,SE,140,7.0,11.0,29,0.00,,,0.00,358.000000,,2013-03-13 23:02:00,
2013-03-13 15:12:00,23.0,-4.0,-100.00,SE,140,7.0,11.0,29,0.00,,,0.00,358.000000,,2013-03-13 23:12:00,
2013-03-13 15:21:00,23.0,-4.0,-100.00,SE,140,7.0,11.0,29,0.00,,,0.00,358.000000,,2013-03-13 23:21:00,
2013-03-13 15:43:00,23.0,-4.0,-100.00,SSE,149,6.0,13.0,29,0.00,,,0.00,140.000000,,2013-03-13 23:43:00,
2013-03-13 15:52:00,23.0,-4.0,-100.00,SSE,149,6.0,13.0,29,0.00,,,0.00,140.000000,,2013-03-13 23:52:00,
2013-03-13 16:02:00,23.0,-4.0,-100.00,SSE,149,6.0,13.0,29,0.00,,,0.00,140.000000,,2013-03-14 00:02:00,
2013-03-13 16:12:00,23.0,-4.0,-100.00,SSE,149,6.0,13.0,29,0.00,,,0.00,140.000000,,2013-03-14 00:12:00,
2013-03-13 16:21:00,23.0,-4.0,-100.00,SSE,149,6.0,13.0,29,0.00,,,0.00,140.000000,,2013-03-14 00:21:00,
2013-03-13 16:42:00,23.0,-5.0,-100.00,SE,140,6.0,9.0,28,0.00,,,0.00,81.000000,,2013-03-14 00:42:00,
2013-03-13 16:52:00,23.0,-5.0,-100.00,SE,140,6.0,9.0,28,0.00,,,0.00,81.000000,,2013-03-14 00:52:00,
2013-03-13 17:02:00,23.0,-5.0,-100.00,SE,140,6.0,9.0,28,0.00,,,0.00,81.000000,,2013-03-14 01:02:00,
2013-03-13 17:12:00,23.0,-5.0,-100.00,SE,140,6.0,9.0,28,0.00,,,0.00,81.000000,,2013-03-14 01:12:00,
2013-03-13 17:21:00,23.0,-5.0,-100.00,SE,140,6.0,9.0,28,0.00,,,0.00,81.000000,,2013-03-14 01:21:00,
2013-03-13 17:42:00,23.0,-4.0,-100.00,SE,144,5.0,11.0,30,0.00,,,0.00,157.000000,,2013-03-14 01:42:00,
2013-03-13 17:53:00,23.0,-4.0,-100.00,SE,144,5.0,11.0,30,0.00,,,0.00,157.000000,,2013-03-14 01:53:00,
2013-03-13 18:02:00,23.0,-4.0,-100.00,SE,144,5.0,11.0,30,0.00,,,0.00,157.000000,,2013-03-14 02:02:00,
2013-03-13 18:12:00,23.0,-4.0,-100.00,SE,144,5.0,11.0,30,0.00,,,0.00,157.000000,,2013-03-14 02:12:00,
2013-03-13 18:21:00,23.0,-4.0,-100.00,SE,144,5.0,11.0,30,0.00,,,0.00,157.000000,,2013-03-14 02:21:00,
2013-03-13 19:01:00,23.0,-4.0,-100.00,SE,129,4.0,9.0,29,0.00,,,0.00,40.000000,,2013-03-14 03:01:00,
2013-03-13 19:12:00,23.0,-4.0,-100.00,SE,129,4.0,9.0,29,0.00,,,0.00,40.000000,,2013-03-14 03:12:00,
2013-03-13 19:22:00,23.0,-4.0,-100.00,SE,129,4.0,9.0,29,0.00,,,0.00,40.000000,,2013-03-14 03:22:00,
2013-03-13 19:42:00,21.0,-5.0,-100.00,SE,145,4.0,8.0,31,0.00,,,0.00,12.000000,,2013-03-14 03:42:00,
2013-03-13 19:52:00,21.0,-5.0,-100.00,SE,145,4.0,8.0,31,0.00,,,0.00,12.000000,,2013-03-14 03:52:00,
2013-03-13 20:12:00,21.0,-5.0,-100.00,SE,145,4.0,8.0,31,0.00,,,0.00,12.000000,,2013-03-14 04:12:00,
2013-03-13 20:21:00,21.0,-5.0,-100.00,SE,145,4.0,8.0,31,0.00,,,0.00,12.000000,,2013-03-14 04:21:00,
2013-03-13 20:42:00,19.0,-3.0,-100.00,SE,135,2.0,6.0,37,0.00,,,0.00,0.000000,,2013-03-14 04:42:00,
2013-03-13 20:52:00,19.0,-3.0,-100.00,SE,135,2.0,6.0,37,0.00,,,0.00,0.000000,,2013-03-14 04:52:00,
2013-03-13 21:02:00,19.0,-3.0,-100.00,SE,135,2.0,6.0,37,0.00,,,0.00,0.000000,,2013-03-14 05:02:00,
2013-03-13 21:12:00,19.0,-3.0,-100.00,SE,135,2.0,6.0,37,0.00,,,0.00,0.000000,,2013-03-14 05:12:00,
2013-03-13 21:21:00,19.0,-3.0,-100.00,SE,135,2.0,6.0,37,0.00,,,0.00,0.000000,,2013-03-14 05:21:00,
2013-03-13 21:42:00,19.0,0.0,-100.00,SE,132,1.0,3.0,41,0.00,,,0.00,0.000000,,2013-03-14 05:42:00,
2013-03-13 21:53:00,19.0,0.0,-100.00,SE,132,1.0,3.0,41,0.00,,,0.00,0.000000,,2013-03-14 05:53:00,
2013-03-13 22:02:00,19.0,0.0,-100.00,SE,132,1.0,3.0,41,0.00,,,0.00,0.000000,,2013-03-14 06:02:00,
2013-03-13 22:12:00,19.0,0.0,-100.00,SE,132,1.0,3.0,41,0.00,,,0.00,0.000000,,2013-03-14 06:12:00,
2013-03-13 22:21:00,19.0,0.0,-100.00,SE,132,1.0,3.0,41,0.00,,,0.00,0.000000,,2013-03-14 06:21:00,
2013-03-13 22:42:00,18.0,-1.0,-100.00,South,175,1.0,4.0,43,0.00,,,0.00,0.000000,,2013-03-14 06:42:00,
2013-03-13 22:52:00,18.0,-1.0,-100.00,South,175,1.0,4.0,43,0.00,,,0.00,0.000000,,2013-03-14 06:52:00,
2013-03-13 23:02:00,18.0,-1.0,-100.00,South,175,1.0,4.0,43,0.00,,,0.00,0.000000,,2013-03-14 07:02:00,
2013-03-13 23:11:00,18.0,-1.0,-100.00,South,175,1.0,4.0,43,0.00,,,0.00,0.000000,,2013-03-14 07:11:00,
2013-03-13 23:21:00,18.0,-1.0,-100.00,South,175,1.0,4.0,43,0.00,,,0.00,0.000000,,2013-03-14 07:21:00,
2013-03-13 23:43:00,18.0,-2.0,-100.00,SSE,150,0.0,3.0,41,0.00,,,0.00,0.000000,,2013-03-14 07:43:00,
2013-03-13 23:52:00,18.0,-2.0,-100.00,SSE,150,0.0,3.0,41,0.00,,,0.00,0.000000,,2013-03-14 07:52:00,